Time;durP1;ratioP1;P1;durP2;ratioP2;P2;SDS_P1;SDS_P2;PMS_P1;PMS_P2;Temp;Humidity;BMP_temperature;BMP_pressure;BME280_temperature;BME280_humidity;BME280_pressure;Samples;Min_cycle;Max_cycle;Signal;HPM_P1;HPM_P2
2022/09/04 00:01:31;;;;;;;6.63;6.20;;;;;;;12.93;100.00;97107.59;4988194;28;20316;-59
2022/09/04 00:04:10;;;;;;;7.40;6.90;;;;;;;12.89;100.00;97109.03;5010412;28;20707;-55
2022/09/04 00:06:46;;;;;;;7.13;6.63;;;;;;;12.85;100.00;97111.25;4987455;28;20220;-59
2022/09/04 00:09:20;;;;;;;7.47;6.97;;;;;;;12.81;100.00;97114.53;5005232;28;20195;-57
2022/09/04 00:11:53;;;;;;;8.00;7.43;;;;;;;12.80;100.00;97107.59;4984815;28;20230;-51
2022/09/04 00:14:26;;;;;;;7.10;6.57;;;;;;;12.79;100.00;97105.94;4961584;28;20815;-60
2022/09/04 00:17:00;;;;;;;7.43;6.77;;;;;;;12.77;100.00;97113.28;5002360;28;20240;-58
2022/09/04 00:19:34;;;;;;;7.63;6.90;;;;;;;12.69;100.00;97114.28;5005385;28;20329;-53
2022/09/04 00:22:08;;;;;;;6.40;6.00;;;;;;;12.66;100.00;97112.03;4991323;28;20268;-58
2022/09/04 00:24:39;;;;;;;7.40;6.80;;;;;;;12.61;100.00;97115.28;5006410;28;20730;-54
2022/09/04 00:27:12;;;;;;;7.60;6.70;;;;;;;12.61;100.00;97123.25;4990978;28;20225;-60
2022/09/04 00:29:47;;;;;;;7.23;6.70;;;;;;;12.62;100.00;97124.88;4970033;28;23021;-58
2022/09/04 00:32:20;;;;;;;6.87;6.37;;;;;;;12.61;100.00;97114.47;5010447;28;20307;-60
2022/09/04 00:34:57;;;;;;;6.77;6.30;;;;;;;12.59;100.00;97125.28;5013094;28;20201;-55
2022/09/04 00:37:29;;;;;;;7.33;6.83;;;;;;;12.55;100.00;97132.84;4992890;28;20192;-62
2022/09/04 00:40:03;;;;;;;6.70;6.30;;;;;;;12.53;100.00;97124.25;4997633;28;20286;-56
2022/09/04 00:42:46;;;;;;;7.30;6.67;;;;;;;12.50;100.00;97131.78;4986271;28;20257;-61
2022/09/04 00:45:28;;;;;;;7.23;6.63;;;;;;;12.44;100.00;97134.22;4993202;28;20300;-61
2022/09/04 00:48:17;;;;;;;7.37;6.87;;;;;;;12.43;100.00;97137.06;5006268;28;20188;-58
2022/09/04 00:51:03;;;;;;;7.80;7.00;;;;;;;12.37;100.00;97132.53;5007728;28;20309;-59
2022/09/04 00:53:42;;;;;;;7.67;7.07;;;;;;;12.43;100.00;97140.56;4991675;28;20291;-58
2022/09/04 00:56:36;;;;;;;7.27;6.73;;;;;;;12.39;100.00;97139.31;5009600;28;20278;-60
2022/09/04 00:59:15;;;;;;;7.90;7.30;;;;;;;12.38;100.00;97139.50;4994311;28;20204;-60
2022/09/04 01:01:46;;;;;;;7.63;7.03;;;;;;;12.41;100.00;97147.06;4972363;28;20968;-60
2022/09/04 01:04:35;;;;;;;6.97;6.50;;;;;;;12.46;100.00;97147.28;5006038;28;20303;-59
2022/09/04 01:07:16;;;;;;;7.40;6.90;;;;;;;12.42;100.00;97143.41;4991922;28;20225;-59
2022/09/04 01:09:59;;;;;;;6.80;6.30;;;;;;;12.36;100.00;97144.19;5006386;28;20204;-56
2022/09/04 01:12:34;;;;;;;7.00;6.47;;;;;;;12.24;100.00;97134.13;5005619;28;20219;-59
2022/09/04 01:15:13;;;;;;;6.97;6.43;;;;;;;12.19;100.00;97138.38;4987398;28;20615;-57
2022/09/04 01:17:51;;;;;;;7.23;6.73;;;;;;;12.18;100.00;97156.16;4966229;28;20295;-58
2022/09/04 01:20:27;;;;;;;7.10;6.60;;;;;;;12.15;100.00;97143.28;5007181;28;20309;-59
2022/09/04 01:23:10;;;;;;;6.57;6.07;;;;;;;12.11;100.00;97150.78;4993657;28;20215;-53
2022/09/04 01:26:01;;;;;;;7.30;6.70;;;;;;;12.12;100.00;97159.56;5004010;28;20228;-62
2022/09/04 01:29:16;;;;;;;6.93;6.33;;;;;;;12.02;100.00;97150.13;4982918;28;21340;-60
2022/09/04 01:31:50;;;;;;;7.00;6.47;;;;;;;12.05;100.00;97164.84;4948405;28;20232;-61
2022/09/04 01:34:30;;;;;;;7.73;7.07;;;;;;;12.10;100.00;97164.25;4973801;28;20812;-59
2022/09/04 01:37:05;;;;;;;7.47;6.80;;;;;;;12.11;100.00;97161.41;5003487;28;20220;-56
2022/09/04 01:39:36;;;;;;;7.10;6.53;;;;;;;12.04;100.00;97167.69;4982148;28;20211;-61
2022/09/04 01:42:11;;;;;;;6.83;6.17;;;;;;;11.92;100.00;97165.53;4999726;28;20306;-56
2022/09/04 01:44:39;;;;;;;7.40;6.80;;;;;;;11.82;100.00;97163.22;4996724;28;20279;-61
2022/09/04 01:47:17;;;;;;;6.50;6.00;;;;;;;11.83;100.00;97172.81;4992677;28;20817;-62
2022/09/04 01:49:51;;;;;;;6.43;5.93;;;;;;;11.75;100.00;97175.63;4955527;28;20304;-58
2022/09/04 01:52:35;;;;;;;7.63;7.03;;;;;;;11.68;100.00;97183.50;5008743;28;20615;-56
2022/09/04 01:55:14;;;;;;;6.50;6.10;;;;;;;11.66;100.00;97180.22;4980442;28;20219;-56
2022/09/04 01:57:55;;;;;;;6.73;6.10;;;;;;;11.62;100.00;97183.47;5003706;28;20206;-60
2022/09/04 02:00:24;;;;;;;6.80;6.20;;;;;;;11.58;100.00;97183.03;4973885;28;20314;-56
2022/09/04 02:02:56;;;;;;;5.40;5.10;;;;;;;11.52;100.00;97186.44;5001053;28;20877;-60
2022/09/04 02:05:30;;;;;;;7.37;6.77;;;;;;;11.64;100.00;97182.25;4970465;28;20390;-63
2022/09/04 02:08:07;;;;;;;7.67;7.10;;;;;;;11.71;100.00;97188.44;4950485;28;20842;-60
2022/09/04 02:10:38;;;;;;;8.67;7.93;;;;;;;11.73;100.00;97185.59;4984457;28;20315;-58
2022/09/04 02:13:14;;;;;;;8.10;7.60;;;;;;;11.70;100.00;97180.69;4989944;28;20263;-60
2022/09/04 02:15:50;;;;;;;7.43;6.93;;;;;;;11.61;100.00;97177.34;5002467;28;20759;-54
2022/09/04 02:18:23;;;;;;;7.97;7.37;;;;;;;11.58;100.00;97177.72;4985359;28;20301;-58
2022/09/04 02:20:57;;;;;;;7.00;6.53;;;;;;;11.54;100.00;97171.97;5007494;28;21036;-60
2022/09/04 02:23:34;;;;;;;6.87;6.47;;;;;;;11.49;100.00;97181.50;4981628;28;20291;-57
2022/09/04 02:26:09;;;;;;;7.60;7.00;;;;;;;11.47;100.00;97184.34;5006303;28;20515;-59
2022/09/04 02:28:49;;;;;;;6.93;6.43;;;;;;;11.50;100.00;97177.84;4992054;28;20339;-59
2022/09/04 02:31:30;;;;;;;7.23;6.73;;;;;;;11.48;100.00;97186.00;4981251;28;20854;-56
2022/09/04 02:34:01;;;;;;;7.90;7.33;;;;;;;11.51;100.00;97182.16;5003502;28;20568;-59
2022/09/04 02:36:34;;;;;;;8.17;7.57;;;;;;;11.49;100.00;97174.38;5004368;28;20884;-60
2022/09/04 02:39:12;;;;;;;7.40;6.90;;;;;;;11.46;100.00;97182.72;4964805;28;20215;-59
2022/09/04 02:41:49;;;;;;;8.50;7.67;;;;;;;11.47;100.00;97184.34;5009188;28;20220;-56
2022/09/04 02:44:27;;;;;;;8.53;7.93;;;;;;;11.45;100.00;97186.38;4989524;28;21070;-58
2022/09/04 02:47:01;;;;;;;8.53;7.83;;;;;;;11.41;100.00;97188.59;5004205;28;20298;-62
2022/09/04 02:49:37;;;;;;;8.27;7.60;;;;;;;11.34;100.00;97193.00;5001427;28;20247;-58
2022/09/04 02:52:18;;;;;;;7.43;6.73;;;;;;;11.27;100.00;97186.81;4977318;28;20224;-61
2022/09/04 02:55:08;;;;;;;6.13;5.63;;;;;;;11.17;100.00;97189.75;5006028;28;20210;-54
2022/09/04 02:57:44;;;;;;;6.53;6.13;;;;;;;11.10;100.00;97187.03;5006146;28;20277;-57
2022/09/04 03:00:26;;;;;;;6.97;6.37;;;;;;;11.15;100.00;97186.47;4992221;28;20251;-56
2022/09/04 03:03:00;;;;;;;8.77;7.03;;;;;;;11.15;100.00;97184.66;5006889;28;20271;-60
2022/09/04 03:05:31;;;;;;;11.33;7.43;;;;;;;11.12;100.00;97189.50;4994106;28;20213;-57
2022/09/04 03:08:04;;;;;;;10.30;6.43;;;;;;;11.15;100.00;97178.50;4959762;28;21070;-57
2022/09/04 03:10:36;;;;;;;6.90;6.20;;;;;;;11.19;100.00;97190.41;4999957;28;20727;-57
2022/09/04 03:13:08;;;;;;;8.73;6.20;;;;;;;11.22;100.00;97184.72;5003610;28;20342;-59
2022/09/04 03:15:41;;;;;;;7.07;6.37;;;;;;;11.33;100.00;97188.69;4989550;28;20245;-58
2022/09/04 03:18:17;;;;;;;15.83;6.77;;;;;;;11.34;100.00;97193.00;4985699;28;20211;-60
2022/09/04 03:20:51;;;;;;;8.00;6.53;;;;;;;11.38;100.00;97196.09;5004385;28;21145;-58
2022/09/04 03:23:21;;;;;;;12.90;6.80;;;;;;;11.43;100.00;97196.34;4965371;28;25687;-57
2022/09/04 03:26:01;;;;;;;8.20;7.33;;;;;;;11.44;100.00;97193.53;5001915;28;21483;-56
2022/09/04 03:28:36;;;;;;;21.73;7.80;;;;;;;11.41;100.00;97188.59;5006085;28;20237;-59
2022/09/04 03:31:16;;;;;;;8.37;7.23;;;;;;;11.40;100.00;97197.56;4989407;28;20254;-60
2022/09/04 03:33:49;;;;;;;15.47;6.60;;;;;;;11.38;100.00;97186.31;4984665;28;20289;-60
2022/09/04 03:36:24;;;;;;;7.87;7.13;;;;;;;11.31;100.00;97188.06;5003015;28;20262;-58
2022/09/04 03:39:01;;;;;;;7.23;6.63;;;;;;;11.34;100.00;97187.69;5002092;28;20831;-62
2022/09/04 03:41:41;;;;;;;8.53;7.30;;;;;;;11.27;100.00;97194.75;4988033;28;20261;-59
2022/09/04 03:44:19;;;;;;;8.67;7.03;;;;;;;11.14;100.00;97204.22;5002126;28;20204;-57
2022/09/04 03:46:59;;;;;;;12.20;7.37;;;;;;;11.02;100.00;97203.06;4991663;28;20290;-58
2022/09/04 03:49:37;;;;;;;7.70;7.00;;;;;;;11.02;100.00;97202.25;4983357;28;21119;-52
2022/09/04 03:52:12;;;;;;;7.27;6.67;;;;;;;11.08;100.00;97199.69;5005699;28;20224;-58
2022/09/04 03:54:51;;;;;;;7.53;7.03;;;;;;;11.23;100.00;97202.28;4962673;28;20248;-58
2022/09/04 03:57:31;;;;;;;8.57;7.77;;;;;;;11.37;100.00;97203.25;5003931;28;21369;-61
2022/09/04 04:00:07;;;;;;;9.77;8.77;;;;;;;11.41;100.00;97206.34;5008645;28;20251;-59
2022/09/04 04:02:54;;;;;;;12.47;9.30;;;;;;;11.50;100.00;97217.66;4993017;28;20216;-59
2022/09/04 04:05:28;;;;;;;17.93;10.90;;;;;;;11.62;100.00;97212.66;4987239;28;21152;-59
2022/09/04 04:08:26;;;;;;;35.83;10.87;;;;;;;11.66;100.00;97217.38;4976938;28;20297;-57
2022/09/04 04:11:00;;;;;;;20.17;9.53;;;;;;;11.72;100.00;97215.81;4970258;28;20381;-58
2022/09/04 04:13:49;;;;;;;10.53;8.90;;;;;;;11.78;100.00;97211.59;4958847;28;20797;-55
2022/09/04 04:16:39;;;;;;;10.63;8.40;;;;;;;11.80;100.00;97209.56;4962328;28;20243;-58
2022/09/04 04:19:26;;;;;;;13.83;8.57;;;;;;;11.68;100.00;97204.75;4985578;28;20197;-60
2022/09/04 04:22:09;;;;;;;8.40;7.60;;;;;;;11.74;100.00;97219.09;4975411;28;20243;-58
2022/09/04 04:25:20;;;;;;;8.90;8.00;;;;;;;11.79;100.00;97222.00;4982640;28;20211;-55
2022/09/04 04:28:18;;;;;;;12.57;7.70;;;;;;;11.81;100.00;97221.81;4988385;28;21926;-53
2022/09/04 04:30:51;;;;;;;11.27;7.37;;;;;;;11.76;100.00;97213.63;4974998;28;20551;-56
2022/09/04 04:33:37;;;;;;;13.73;7.13;;;;;;;11.73;100.00;97222.75;5006434;28;20283;-56
2022/09/04 04:36:16;;;;;;;11.43;8.13;;;;;;;11.79;100.00;97221.19;4962682;28;20316;-58
2022/09/04 04:38:54;;;;;;;7.83;6.93;;;;;;;11.85;100.00;97229.19;5000218;28;22627;-60
2022/09/04 04:42:03;;;;;;;8.27;7.50;;;;;;;11.85;100.00;97231.03;4983650;28;20251;-60
2022/09/04 04:47:34;;;;;;;8.73;7.83;;;;;;;11.95;100.00;97254.63;5008220;28;20230;-59
2022/09/04 04:50:12;;;;;;;8.30;7.50;;;;;;;12.03;100.00;97249.19;4991100;28;20290;-54
2022/09/04 04:52:49;;;;;;;11.07;8.63;;;;;;;12.07;100.00;97255.78;4924519;28;20235;-56
2022/09/04 04:55:29;;;;;;;12.77;8.90;;;;;;;12.08;100.00;97254.75;5000830;28;20593;-60
2022/09/04 04:58:24;;;;;;;11.33;8.53;;;;;;;12.10;100.00;97265.16;4987122;28;20208;-60
2022/09/04 05:01:03;;;;;;;9.17;8.37;;;;;;;12.14;100.00;97272.56;4971045;28;20229;-56
2022/09/04 05:03:43;;;;;;;8.97;8.07;;;;;;;12.15;100.00;97270.75;5013034;28;20203;-58
2022/09/04 05:06:14;;;;;;;25.97;9.37;;;;;;;12.09;100.00;97280.31;4968990;28;20208;-61
2022/09/04 05:08:47;;;;;;;10.50;9.03;;;;;;;12.21;100.00;97280.59;5013740;28;20247;-57
2022/09/04 05:11:23;;;;;;;14.98;8.95;;;;;;;12.36;100.00;97283.19;4958867;28;21145;-56
2022/09/04 05:14:00;;;;;;;18.30;8.40;;;;;;;12.23;100.00;97280.41;5006716;28;20199;-54
2022/09/04 05:16:35;;;;;;;16.53;7.87;;;;;;;12.34;100.00;97292.34;4968865;28;20232;-58
2022/09/04 05:19:12;;;;;;;16.07;8.77;;;;;;;12.34;100.00;97293.19;4993010;28;20200;-59
2022/09/04 05:21:47;;;;;;;17.13;7.33;;;;;;;12.36;100.00;97292.97;4967259;28;20282;-56
2022/09/04 05:24:22;;;;;;;9.73;6.77;;;;;;;12.42;100.00;97303.66;4978951;28;20914;-59
2022/09/04 05:26:54;;;;;;;8.30;7.20;;;;;;;12.40;100.00;97295.06;5002997;28;20212;-57
2022/09/04 05:29:28;;;;;;;7.03;6.43;;;;;;;12.53;100.00;97307.63;4985841;28;20305;-55
2022/09/04 05:32:08;;;;;;;5.77;5.47;;;;;;;12.54;100.00;97308.44;4964455;28;20228;-58
2022/09/04 05:35:02;;;;;;;12.50;6.00;;;;;;;12.59;100.00;97311.34;5005931;28;20717;-54
2022/09/04 05:37:34;;;;;;;7.40;5.93;;;;;;;12.73;100.00;97315.75;4970731;28;20219;-59
2022/09/04 05:40:07;;;;;;;7.37;6.47;;;;;;;12.61;100.00;97319.94;4984098;28;20285;-58
2022/09/04 05:42:44;;;;;;;6.83;6.17;;;;;;;12.59;100.00;97332.59;4990024;28;20236;-58
2022/09/04 05:45:21;;;;;;;7.10;6.40;;;;;;;12.66;100.00;97335.31;5001543;28;20220;-55
2022/09/04 05:47:59;;;;;;;8.83;6.70;;;;;;;12.81;100.00;97346.66;4967341;28;20239;-57
2022/09/04 05:50:40;;;;;;;10.80;7.93;;;;;;;12.68;100.00;97336.75;4991391;28;20247;-62
2022/09/04 05:53:39;;;;;;;7.20;6.70;;;;;;;12.94;100.00;97351.25;4979933;28;20333;-58
2022/09/04 05:56:43;;;;;;;7.13;6.60;;;;;;;13.21;100.00;97348.75;4963443;28;20216;-55
2022/09/04 05:59:39;;;;;;;9.73;8.67;;;;;;;13.30;100.00;97344.91;4978895;28;20259;-60
2022/09/04 06:02:50;;;;;;;7.57;6.30;;;;;;;13.37;100.00;97344.09;4961133;28;20318;-61
2022/09/04 06:05:45;;;;;;;7.07;6.50;;;;;;;13.36;100.00;97345.97;4953361;28;20757;-61
2022/09/04 06:08:24;;;;;;;7.43;6.77;;;;;;;13.74;100.00;97352.66;4928451;28;20285;-58
2022/09/04 06:11:04;;;;;;;7.10;6.37;;;;;;;13.85;100.00;97353.94;4954722;28;20230;-59
2022/09/04 06:13:57;;;;;;;7.23;6.60;;;;;;;13.98;100.00;97353.16;4964347;28;20201;-57
2022/09/04 06:16:41;;;;;;;8.90;6.20;;;;;;;14.27;100.00;97353.81;4943551;28;20293;-55
2022/09/04 06:19:28;;;;;;;10.43;6.43;;;;;;;14.20;100.00;97345.81;4910007;28;20221;-57
2022/09/04 06:22:15;;;;;;;7.57;6.93;;;;;;;14.54;100.00;97348.47;4948875;28;20229;-56
2022/09/04 06:25:12;;;;;;;6.87;6.37;;;;;;;14.62;100.00;97359.78;4945591;28;20402;-56
2022/09/04 06:27:52;;;;;;;5.53;5.23;;;;;;;14.64;100.00;97353.41;4940875;28;20618;-57
2022/09/04 06:30:20;;;;;;;5.97;5.60;;;;;;;14.53;100.00;97358.34;4949419;28;20234;-57
2022/09/04 06:33:16;;;;;;;5.97;5.30;;;;;;;14.38;100.00;97355.03;4959452;28;20479;-55
2022/09/04 06:35:52;;;;;;;7.07;6.47;;;;;;;14.40;100.00;97358.34;4914381;28;20313;-55
2022/09/04 06:38:35;;;;;;;6.97;6.47;;;;;;;14.32;100.00;97359.34;4961721;28;20303;-57
2022/09/04 06:41:20;;;;;;;7.50;6.80;;;;;;;14.46;100.00;97360.19;4984638;28;20872;-59
2022/09/04 06:43:52;;;;;;;6.93;6.43;;;;;;;14.42;100.00;97365.09;4995601;28;20216;-54
2022/09/04 06:46:25;;;;;;;6.33;5.93;;;;;;;14.47;100.00;97372.50;4989632;28;20204;-58
2022/09/04 06:49:00;;;;;;;7.27;6.77;;;;;;;14.64;100.00;97369.41;5002081;28;20534;-54
2022/09/04 06:51:41;;;;;;;6.60;6.20;;;;;;;14.68;100.00;97373.31;4960428;28;20227;-57
2022/09/04 06:54:16;;;;;;;7.53;7.03;;;;;;;14.63;100.00;97365.94;5003853;28;20200;-55
2022/09/04 06:57:01;;;;;;;7.37;6.87;;;;;;;14.74;100.00;97375.16;4985642;28;21040;-57
2022/09/04 06:59:48;;;;;;;8.13;7.53;;;;;;;15.01;100.00;97375.16;4992773;28;20729;-57
2022/09/04 07:02:29;;;;;;;8.07;7.57;;;;;;;15.12;100.00;97374.50;5001805;28;21361;-56
2022/09/04 07:05:08;;;;;;;8.73;7.90;;;;;;;15.22;100.00;97378.63;4983487;28;20277;-55
2022/09/04 07:07:41;;;;;;;8.53;7.93;;;;;;;14.98;100.00;97383.56;4954514;28;20562;-60
2022/09/04 07:10:12;;;;;;;7.93;7.43;;;;;;;15.11;100.00;97391.56;4966105;28;20476;-57
2022/09/04 07:12:54;;;;;;;7.83;7.27;;;;;;;15.25;100.00;97392.34;4984331;28;20739;-59
2022/09/04 07:15:37;;;;;;;7.67;7.13;;;;;;;15.40;100.00;97383.28;4983457;28;20514;-56
2022/09/04 07:18:17;;;;;;;8.32;7.72;;;;;;;15.52;100.00;97388.78;4964495;28;20540;-57
2022/09/04 07:20:54;;;;;;;8.73;8.10;;;;;;;15.53;100.00;97391.25;4967047;28;20227;-60
2022/09/04 07:23:31;;;;;;;8.03;7.50;;;;;;;15.57;100.00;97389.00;4919877;28;20451;-58
2022/09/04 07:26:07;;;;;;;8.03;7.33;;;;;;;15.67;100.00;97393.88;4951711;28;20287;-55
2022/09/04 07:29:29;;;;;;;7.23;6.73;;;;;;;15.86;100.00;97386.78;4950952;28;20409;-60
2022/09/04 07:32:01;;;;;;;8.63;8.03;;;;;;;16.18;100.00;97394.88;4889406;29;22625;-57
2022/09/04 07:34:38;;;;;;;8.37;7.77;;;;;;;16.40;100.00;97394.56;4902058;29;20207;-59
2022/09/04 07:37:22;;;;;;;8.97;8.27;;;;;;;16.52;100.00;97392.00;4869818;29;20254;-59
2022/09/04 07:39:56;;;;;;;8.13;7.53;;;;;;;17.32;100.00;97399.34;4912694;29;20275;-53
2022/09/04 07:42:31;;;;;;;7.60;7.10;;;;;;;18.08;100.00;97403.63;4877827;29;21094;-56
2022/09/04 07:45:05;;;;;;;8.13;7.47;;;;;;;18.12;100.00;97407.50;4909578;29;20233;-56
2022/09/04 07:47:37;;;;;;;8.52;7.93;;;;;;;18.39;100.00;97399.09;4898928;29;21785;-57
2022/09/04 07:50:10;;;;;;;6.70;6.30;;;;;;;18.94;100.00;97403.38;4908826;29;20231;-55
2022/09/04 07:52:53;;;;;;;6.93;6.47;;;;;;;18.97;100.00;97402.09;4866429;29;20898;-57
2022/09/04 07:55:27;;;;;;;6.90;6.40;;;;;;;19.23;100.00;97405.38;4904666;29;20634;-57
2022/09/04 07:58:30;;;;;;;5.33;5.03;;;;;;;19.17;100.00;97403.66;4880080;29;20726;-58
2022/09/04 08:01:15;;;;;;;5.17;4.87;;;;;;;18.70;100.00;97407.06;4909767;29;20274;-56
2022/09/04 08:04:03;;;;;;;5.97;5.47;;;;;;;18.64;100.00;97409.63;4876726;29;20298;-59
2022/09/04 08:06:36;;;;;;;5.70;5.30;;;;;;;18.45;100.00;97413.44;4945238;28;20441;-58
2022/09/04 08:09:23;;;;;;;5.90;5.40;;;;;;;18.57;100.00;97421.50;4922885;28;20307;-57
2022/09/04 08:12:14;;;;;;;5.90;5.50;;;;;;;18.63;100.00;97420.59;4974986;28;20963;-57
2022/09/04 08:14:52;;;;;;;6.10;5.70;;;;;;;18.94;100.00;97429.41;4971359;28;20209;-56
2022/09/04 08:17:41;;;;;;;5.77;5.37;;;;;;;19.26;100.00;97431.78;4997381;28;20429;-58
2022/09/04 08:20:20;;;;;;;9.27;8.40;;;;;;;19.28;100.00;97431.53;4995540;28;20321;-58
2022/09/04 08:22:55;;;;;;;9.33;8.63;;;;;;;19.32;100.00;97433.53;4962124;28;20727;-56
2022/09/04 08:25:29;;;;;;;6.23;5.63;;;;;;;19.34;100.00;97430.63;5002552;28;20200;-58
2022/09/04 08:28:17;;;;;;;5.63;5.23;;;;;;;19.72;100.00;97426.59;4946727;28;20620;-58
2022/09/04 08:30:53;;;;;;;5.93;5.53;;;;;;;19.92;100.00;97428.06;5007010;28;20314;-56
2022/09/04 08:33:43;;;;;;;4.80;4.50;;;;;;;19.86;100.00;97421.72;4988773;28;20218;-59
2022/09/04 08:36:19;;;;;;;4.20;3.90;;;;;;;20.33;100.00;97430.75;5005730;28;20258;-58
2022/09/04 08:38:59;;;;;;;3.77;3.57;;;;;;;20.64;100.00;97432.09;4983037;28;20512;-61
2022/09/04 08:42:13;;;;;;;3.60;3.27;;;;;;;20.64;100.00;97442.03;4963489;28;20771;-59
2022/09/04 08:45:19;;;;;;;3.90;3.50;;;;;;;20.59;100.00;97436.56;4985260;28;20270;-58
2022/09/04 08:48:31;;;;;;;3.40;3.20;;;;;;;20.78;100.00;97437.97;5006672;28;20414;-58
2022/09/04 08:51:59;;;;;;;3.97;3.77;;;;;;;20.21;100.00;97442.34;5010283;28;20236;-58
2022/09/04 08:55:01;;;;;;;3.60;3.40;;;;;;;20.44;100.00;97440.63;4985720;28;20244;-57
2022/09/04 08:58:12;;;;;;;3.97;3.70;;;;;;;20.97;100.00;97437.75;4972537;28;20212;-59
2022/09/04 09:00:56;;;;;;;4.17;3.87;;;;;;;21.85;100.00;97441.72;5002521;28;20212;-57
2022/09/04 09:03:41;;;;;;;3.73;3.53;;;;;;;21.85;100.00;97443.59;5006953;28;20620;-57
2022/09/04 09:06:57;;;;;;;4.00;3.73;;;;;;;21.77;100.00;97444.84;5004048;28;20643;-60
2022/09/04 09:09:45;;;;;;;4.00;3.80;;;;;;;22.19;100.00;97451.53;4974589;28;20298;-59
2022/09/04 09:12:51;;;;;;;4.40;4.10;;;;;;;21.97;100.00;97439.72;5006004;28;20235;-57
2022/09/04 09:15:37;;;;;;;4.60;4.30;;;;;;;22.11;100.00;97447.41;4981939;28;20630;-58
2022/09/04 09:18:17;;;;;;;4.60;4.20;;;;;;;22.23;100.00;97445.41;5007649;28;20635;-60
2022/09/04 09:20:49;;;;;;;4.60;4.20;;;;;;;21.69;100.00;97446.91;4988971;28;20486;-58
2022/09/04 09:23:19;;;;;;;4.83;4.07;;;;;;;22.12;100.00;97449.03;5006731;28;20236;-58
2022/09/04 09:26:17;;;;;;;4.43;4.00;;;;;;;22.11;100.00;97445.53;4985699;28;20405;-54
2022/09/04 09:29:12;;;;;;;4.30;3.80;;;;;;;22.00;100.00;97437.56;4932407;28;20971;-59
2022/09/04 09:32:07;;;;;;;5.57;4.30;;;;;;;22.23;100.00;97442.69;4977495;28;20357;-58
2022/09/04 09:34:53;;;;;;;4.00;3.63;;;;;;;21.82;100.00;97447.63;4987809;28;21161;-57
2022/09/04 09:37:59;;;;;;;4.00;3.70;;;;;;;21.60;100.00;97442.97;4992895;28;20211;-59
2022/09/04 09:40:54;;;;;;;4.57;4.27;;;;;;;21.17;100.00;97436.44;4950025;28;20570;-59
2022/09/04 09:43:58;;;;;;;4.80;4.40;;;;;;;20.50;100.00;97433.47;4923894;28;20249;-58
2022/09/04 09:47:08;;;;;;;3.93;3.40;;;;;;;20.63;100.00;97435.84;4962934;28;20225;-58
2022/09/04 09:50:02;;;;;;;3.85;3.60;;;;;;;20.90;100.00;97434.41;4963082;28;21154;-55
2022/09/04 09:53:07;;;;;;;3.93;3.70;;;;;;;21.00;100.00;97431.06;4945858;28;20362;-54
2022/09/04 09:56:01;;;;;;;3.70;3.50;;;;;;;21.31;100.00;97428.84;4947210;28;20245;-58
2022/09/04 09:59:05;;;;;;;4.33;4.10;;;;;;;21.03;100.00;97436.81;4917659;28;20255;-54
2022/09/04 10:01:59;;;;;;;3.27;3.07;;;;;;;20.89;100.00;97430.09;4941239;28;20225;-59
2022/09/04 10:04:43;;;;;;;4.00;3.70;;;;;;;21.30;100.00;97436.09;4946680;28;20587;-55
2022/09/04 10:07:37;;;;;;;3.77;3.57;;;;;;;21.43;100.00;97424.16;4929011;28;20229;-56
2022/09/04 10:10:23;;;;;;;3.60;3.30;;;;;;;21.45;100.00;97427.41;4930950;28;21007;-57
2022/09/04 10:13:14;;;;;;;3.50;3.30;;;;;;;21.22;100.00;97423.06;4944822;28;20866;-58
2022/09/04 10:16:04;;;;;;;3.77;3.47;;;;;;;21.23;100.00;97420.13;4957047;28;20536;-58
2022/09/04 10:18:58;;;;;;;3.47;3.27;;;;;;;20.87;100.00;97416.06;5007127;28;20458;-52
2022/09/04 10:21:57;;;;;;;3.83;3.63;;;;;;;20.46;100.00;97427.75;4968308;28;20973;-53
2022/09/04 10:24:57;;;;;;;3.80;3.50;;;;;;;20.99;100.00;97426.75;4982220;28;20259;-58
2022/09/04 10:27:42;;;;;;;3.50;3.30;;;;;;;21.27;100.00;97422.31;4968903;28;20517;-55
2022/09/04 10:30:12;;;;;;;2.93;2.70;;;;;;;21.84;100.00;97413.13;4957336;28;20325;-55
2022/09/04 10:33:11;;;;;;;3.23;2.97;;;;;;;22.24;100.00;97413.81;5002343;28;20219;-57
2022/09/04 10:35:53;;;;;;;3.28;2.97;;;;;;;22.79;100.00;97413.81;4928120;28;20455;-55
2022/09/04 10:38:27;;;;;;;3.03;2.83;;;;;;;22.97;100.00;97413.41;4973488;28;20204;-55
2022/09/04 10:41:21;;;;;;;2.73;2.63;;;;;;;22.62;100.00;97413.94;4998473;28;20835;-54
2022/09/04 10:44:02;;;;;;;2.53;2.33;;;;;;;22.58;100.00;97416.34;4986753;28;20283;-55
2022/09/04 10:46:36;;;;;;;2.40;2.30;;;;;;;22.81;100.00;97414.38;5004794;28;20228;-58
2022/09/04 10:49:28;;;;;;;2.80;2.60;;;;;;;22.91;100.00;97414.44;4998948;28;20781;-52
2022/09/04 10:52:30;;;;;;;2.27;2.17;;;;;;;23.03;100.00;97419.69;4987147;28;20255;-56
2022/09/04 10:55:10;;;;;;;2.70;2.60;;;;;;;22.91;100.00;97411.75;5007642;28;20196;-54
2022/09/04 10:58:04;;;;;;;3.30;3.00;;;;;;;22.83;100.00;97420.34;4977785;28;20468;-54
2022/09/04 11:00:36;;;;;;;2.37;2.17;;;;;;;22.54;100.00;97407.94;4974302;28;20307;-55
2022/09/04 11:03:26;;;;;;;3.03;2.90;;;;;;;22.45;100.00;97406.75;5003314;28;20207;-56
2022/09/04 11:06:48;;;;;;;3.80;2.87;;;;;;;22.50;100.00;97401.41;4952361;28;20221;-54
2022/09/04 11:09:30;;;;;;;2.67;2.17;;;;;;;22.63;100.00;97402.06;5002185;28;20208;-55
2022/09/04 11:12:11;;;;;;;2.40;2.30;;;;;;;22.77;100.00;97399.75;4999455;28;20682;-55
2022/09/04 11:15:02;;;;;;;4.30;4.00;;;;;;;22.89;100.00;97405.78;4974162;28;20240;-55
2022/09/04 11:18:18;;;;;;;2.43;2.33;;;;;;;23.10;100.00;97404.06;4989035;28;20232;-53
2022/09/04 11:21:21;;;;;;;2.60;2.40;;;;;;;23.39;100.00;97406.44;4924974;28;23173;-57
2022/09/04 11:24:22;;;;;;;2.40;2.30;;;;;;;23.65;97.95;97401.13;4965965;28;20209;-55
2022/09/04 11:27:29;;;;;;;4.20;3.90;;;;;;;24.39;90.43;97406.53;4972947;28;21022;-58
2022/09/04 11:30:06;;;;;;;2.47;2.27;;;;;;;24.48;86.97;97412.22;4965713;28;20506;-56
2022/09/04 11:33:14;;;;;;;2.13;2.03;;;;;;;25.04;84.83;97404.41;4968066;28;20216;-58
2022/09/04 11:36:08;;;;;;;2.37;2.13;;;;;;;25.47;72.87;97402.19;4934405;28;22547;-56
2022/09/04 11:39:01;;;;;;;1.80;1.70;;;;;;;25.44;73.47;97400.78;4981506;28;20259;-56
2022/09/04 11:41:56;;;;;;;2.47;2.20;;;;;;;25.57;71.31;97404.03;4967799;28;20342;-57
2022/09/04 11:45:04;;;;;;;1.87;1.77;;;;;;;26.19;70.31;97400.28;4957308;28;20217;-51
2022/09/04 11:47:59;;;;;;;2.10;1.90;;;;;;;26.69;60.81;97401.00;4966042;28;20232;-54
2022/09/04 11:50:37;;;;;;;1.90;1.80;;;;;;;25.90;57.51;97398.22;4988159;28;20264;-53
2022/09/04 11:53:59;;;;;;;1.73;1.73;;;;;;;25.22;66.33;97408.44;4943302;28;20968;-53
2022/09/04 11:56:40;;;;;;;4.27;3.87;;;;;;;25.69;64.17;97407.25;4929035;28;20210;-56
2022/09/04 11:59:31;;;;;;;2.27;2.17;;;;;;;25.95;66.93;97396.31;4937387;28;20971;-54
2022/09/04 12:02:16;;;;;;;1.93;1.77;;;;;;;25.68;61.63;97404.81;4950519;28;20737;-58
2022/09/04 12:04:59;;;;;;;2.80;2.67;;;;;;;25.57;63.80;97402.13;4932706;28;20221;-56
2022/09/04 12:07:49;;;;;;;2.73;2.53;;;;;;;25.20;69.30;97405.19;4913227;28;20356;-56
2022/09/04 12:10:44;;;;;;;3.03;2.73;;;;;;;24.96;70.14;97395.72;4933445;28;23227;-53
2022/09/04 12:13:51;;;;;;;2.30;2.20;;;;;;;24.42;81.49;97402.44;4951100;28;22723;-51
2022/09/04 12:16:51;;;;;;;3.10;2.67;;;;;;;23.89;90.36;97406.09;4938823;28;20241;-56
2022/09/04 12:19:38;;;;;;;2.17;2.00;;;;;;;23.74;89.36;97404.16;4930922;28;20936;-56
2022/09/04 12:22:43;;;;;;;2.37;2.10;;;;;;;23.67;92.76;97401.66;4892668;28;20873;-57
2022/09/04 12:25:22;;;;;;;2.03;1.83;;;;;;;23.93;85.41;97407.19;4947338;28;20210;-54
2022/09/04 12:28:11;;;;;;;1.90;1.50;;;;;;;23.62;95.22;97407.06;4950156;28;20214;-57
2022/09/04 12:30:51;;;;;;;2.23;1.97;;;;;;;23.60;93.56;97413.81;4948622;28;20431;-49
2022/09/04 12:33:36;;;;;;;2.17;2.07;;;;;;;23.44;96.92;97410.22;4989356;28;20251;-57
2022/09/04 12:36:26;;;;;;;5.23;4.83;;;;;;;23.53;96.49;97411.34;5009998;28;20207;-52
2022/09/04 12:39:30;;;;;;;2.70;2.50;;;;;;;23.70;95.44;97413.88;4951989;28;20245;-53
2022/09/04 12:42:05;;;;;;;2.00;1.90;;;;;;;23.56;91.76;97405.41;4928769;28;20755;-54
2022/09/04 12:44:42;;;;;;;2.30;2.20;;;;;;;23.21;99.62;97409.50;4996325;28;20635;-54